Time,TemperatureF,DewpointF,PressureIn,WindDirection,WindDirectionDegrees,WindSpeedMPH,WindSpeedGustMPH,Humidity,HourlyPrecipIn,Conditions,Clouds,dailyrainin,SolarRadiationWatts/m^2,SoftwareType,DateUTC
2013-03-01 00:00:00,46.2,44.0,30.34,North,-999,0.0,0.0,92,0.00,,,-99.99,0,WeatherLink 5.7,2013-03-01 08:00:00,
2013-03-01 00:08:00,47.4,44.6,30.34,NW,313,0.0,0.0,90,0.00,,,0.00,,Wunderground v.1.13,2013-03-01 08:08:00,
2013-03-01 00:13:00,47.3,44.5,30.34,NW,313,0.0,0.0,90,0.00,,,0.00,,Wunderground v.1.13,2013-03-01 08:13:00,
2013-03-01 00:15:00,46.0,43.8,30.34,North,-999,0.0,0.0,92,0.00,,,-99.99,0,WeatherLink 5.7,2013-03-01 08:15:00,
2013-03-01 00:23:00,47.0,44.2,30.34,NW,313,0.0,0.0,90,0.00,,,0.00,,Wunderground v.1.13,2013-03-01 08:23:00,
2013-03-01 00:30:00,45.5,43.3,30.35,North,-999,0.0,0.0,92,0.00,,,-99.99,0,WeatherLink 5.7,2013-03-01 08:30:00,
2013-03-01 00:33:00,46.8,44.3,30.34,NW,313,0.0,0.0,91,0.00,,,0.00,,Wunderground v.1.13,2013-03-01 08:33:00,
2013-03-01 00:38:00,46.7,44.2,30.34,NW,313,0.0,0.0,91,0.00,,,0.00,,Wunderground v.1.13,2013-03-01 08:38:00,
2013-03-01 00:45:00,45.1,42.9,30.35,North,-999,0.0,0.0,92,0.00,,,-99.99,0,WeatherLink 5.7,2013-03-01 08:45:00,
2013-03-01 00:48:00,46.5,44.0,30.34,NW,313,0.0,0.0,91,0.00,,,0.00,,Wunderground v.1.13,2013-03-01 08:48:00,
2013-03-01 00:58:00,46.2,44.0,30.34,NW,313,0.0,0.0,92,0.00,,,0.00,,Wunderground v.1.13,2013-03-01 08:58:00,
2013-03-01 01:00:00,44.9,42.7,30.35,North,-999,0.0,0.0,92,0.00,,,-99.99,0,WeatherLink 5.7,2013-03-01 09:00:00,
2013-03-01 01:03:00,46.2,44.0,30.34,NW,313,0.0,0.0,92,0.00,,,0.00,,Wunderground v.1.13,2013-03-01 09:03:00,
2013-03-01 01:13:00,46.0,43.8,30.34,NW,313,0.0,0.0,92,0.00,,,0.00,,Wunderground v.1.13,2013-03-01 09:13:00,
2013-03-01 01:15:00,44.9,43.0,30.34,North,-999,0.0,0.0,93,0.00,,,-99.99,0,WeatherLink 5.7,2013-03-01 09:15:00,
2013-03-01 01:23:00,45.7,43.5,30.34,NW,313,0.0,0.0,92,0.00,,,0.00,,Wunderground v.1.13,2013-03-01 09:23:00,
2013-03-01 01:30:00,44.6,42.4,30.34,North,-999,0.0,0.0,92,0.00,,,-99.99,0,WeatherLink 5.7,2013-03-01 09:30:00,
2013-03-01 01:33:00,45.4,43.2,30.35,NW,313,0.0,0.0,92,0.00,,,0.00,,Wunderground v.1.13,2013-03-01 09:33:00,
2013-03-01 01:38:00,45.2,43.0,30.35,NW,313,0.0,0.0,92,0.00,,,0.00,,Wunderground v.1.13,2013-03-01 09:38:00,
2013-03-01 01:45:00,44.2,42.0,30.33,North,-999,0.0,0.0,92,0.00,,,-99.99,0,WeatherLink 5.7,2013-03-01 09:45:00,
2013-03-01 01:48:00,45.1,42.9,30.35,NW,313,0.0,0.0,92,0.00,,,0.00,,Wunderground v.1.13,2013-03-01 09:48:00,
2013-03-01 01:53:00,44.9,42.7,30.35,NW,313,0.0,0.0,92,0.00,,,0.00,,Wunderground v.1.13,2013-03-01 09:53:00,
2013-03-01 02:00:00,43.9,41.7,30.33,North,-999,0.0,0.0,92,0.00,,,-99.99,0,WeatherLink 5.7,2013-03-01 10:00:00,
2013-03-01 02:03:00,44.9,42.7,30.35,NW,313,0.0,0.0,92,0.00,,,0.00,,Wunderground v.1.13,2013-03-01 10:03:00,
2013-03-01 02:08:00,44.9,43.0,30.35,NW,313,0.0,0.0,93,0.00,,,0.00,,Wunderground v.1.13,2013-03-01 10:08:00,
2013-03-01 02:15:00,43.5,41.3,30.33,North,-999,0.0,0.0,92,0.00,,,-99.99,0,WeatherLink 5.7,2013-03-01 10:15:00,
2013-03-01 02:30:00,43.2,41.0,30.33,North,-999,0.0,0.0,92,0.00,,,-99.99,0,WeatherLink 5.7,2013-03-01 10:30:00,
2013-03-01 02:33:00,44.5,42.3,30.34,NW,313,0.0,0.0,92,0.00,,,0.00,,Wunderground v.1.13,2013-03-01 10:33:00,
2013-03-01 02:38:00,44.3,42.1,30.34,NW,313,0.0,0.0,92,0.00,,,0.00,,Wunderground v.1.13,2013-03-01 10:38:00,
2013-03-01 02:45:00,42.9,41.0,30.33,NW,315,0.0,1.0,93,0.00,,,-99.99,0,WeatherLink 5.7,2013-03-01 10:45:00,
2013-03-01 02:48:00,44.2,42.0,30.33,NW,313,0.0,0.0,92,0.00,,,0.00,,Wunderground v.1.13,2013-03-01 10:48:00,
2013-03-01 02:58:00,43.9,41.7,30.33,NW,313,0.0,0.0,92,0.00,,,0.00,,Wunderground v.1.13,2013-03-01 10:58:00,
2013-03-01 03:00:00,42.9,41.0,30.33,North,-999,0.0,0.0,93,0.00,,,-99.99,0,WeatherLink 5.7,2013-03-01 11:00:00,
2013-03-01 03:03:00,43.8,41.9,30.33,NW,313,0.0,0.0,93,0.00,,,0.00,,Wunderground v.1.13,2013-03-01 11:03:00,
2013-03-01 03:15:00,42.9,41.0,30.33,North,-999,0.0,0.0,93,0.00,,,-99.99,0,WeatherLink 5.7,2013-03-01 11:15:00,
2013-03-01 03:18:00,43.5,41.6,30.33,NW,313,0.0,0.0,93,0.00,,,0.00,,Wunderground v.1.13,2013-03-01 11:18:00,
2013-03-01 03:28:00,43.2,41.0,30.33,NW,313,0.0,0.0,92,0.00,,,0.00,,Wunderground v.1.13,2013-03-01 11:28:00,
2013-03-01 03:30:00,42.8,41.2,30.33,North,-999,0.0,0.0,94,0.00,,,-99.99,0,WeatherLink 5.7,2013-03-01 11:30:00,
2013-03-01 03:38:00,43.1,41.2,30.33,NW,313,0.0,0.0,93,0.00,,,0.00,,Wunderground v.1.13,2013-03-01 11:38:00,
2013-03-01 03:43:00,43.1,41.2,30.33,NW,313,0.0,0.0,93,0.00,,,0.00,,Wunderground v.1.13,2013-03-01 11:43:00,
2013-03-01 03:45:00,42.6,41.0,30.33,North,-999,0.0,0.0,94,0.00,,,-99.99,0,WeatherLink 5.7,2013-03-01 11:45:00,
2013-03-01 03:53:00,42.9,41.0,30.33,NW,313,0.0,0.0,93,0.00,,,0.00,,Wunderground v.1.13,2013-03-01 11:53:00,
2013-03-01 04:00:00,42.5,40.9,30.32,North,-999,0.0,0.0,94,0.00,,,-99.99,0,WeatherLink 5.7,2013-03-01 12:00:00,
2013-03-01 04:03:00,42.9,41.0,30.33,NW,313,0.0,0.0,93,0.00,,,0.00,,Wunderground v.1.13,2013-03-01 12:03:00,
2013-03-01 04:08:00,42.9,41.0,30.33,NW,313,0.0,0.0,93,0.00,,,0.00,,Wunderground v.1.13,2013-03-01 12:08:00,
2013-03-01 04:15:00,42.1,40.5,30.32,North,-999,0.0,0.0,94,0.00,,,-99.99,0,WeatherLink 5.7,2013-03-01 12:15:00,
2013-03-01 04:18:00,42.8,40.9,30.33,NW,313,0.0,0.0,93,0.00,,,0.00,,Wunderground v.1.13,2013-03-01 12:18:00,
2013-03-01 04:28:00,42.8,41.2,30.33,NW,313,0.0,0.0,94,0.00,,,0.00,,Wunderground v.1.13,2013-03-01 12:28:00,
2013-03-01 04:30:00,41.6,40.0,30.32,North,-999,0.0,0.0,94,0.00,,,-99.99,0,WeatherLink 5.7,2013-03-01 12:30:00,
2013-03-01 04:33:00,42.8,41.2,30.33,NW,313,0.0,0.0,94,0.00,,,0.00,,Wunderground v.1.13,2013-03-01 12:33:00,
2013-03-01 04:38:00,42.6,41.0,30.33,NW,313,0.0,0.0,94,0.00,,,0.00,,Wunderground v.1.13,2013-03-01 12:38:00,
2013-03-01 04:45:00,41.8,40.2,30.32,NW,315,0.0,1.0,94,0.00,,,-99.99,0,WeatherLink 5.7,2013-03-01 12:45:00,
2013-03-01 04:48:00,42.6,41.0,30.33,NW,313,0.0,0.0,94,0.00,,,0.00,,Wunderground v.1.13,2013-03-01 12:48:00,
2013-03-01 04:53:00,42.6,41.0,30.33,NW,313,0.0,0.0,94,0.00,,,0.00,,Wunderground v.1.13,2013-03-01 12:53:00,
2013-03-01 05:00:00,41.8,40.2,30.32,North,-999,0.0,0.0,94,0.00,,,-99.99,0,WeatherLink 5.7,2013-03-01 13:00:00,
2013-03-01 05:03:00,42.3,40.7,30.32,NW,313,0.0,0.0,94,0.00,,,0.00,,Wunderground v.1.13,2013-03-01 13:03:00,
2013-03-01 05:13:00,42.1,40.5,30.32,NW,313,0.0,0.0,94,0.00,,,0.00,,Wunderground v.1.13,2013-03-01 13:13:00,
2013-03-01 05:15:00,41.6,40.0,30.32,North,-999,0.0,0.0,94,0.00,,,-99.99,0,WeatherLink 5.7,2013-03-01 13:15:00,
2013-03-01 05:18:00,41.9,40.3,30.32,NW,313,0.0,0.0,94,0.00,,,0.00,,Wunderground v.1.13,2013-03-01 13:18:00,
2013-03-01 05:28:00,41.8,40.2,30.32,NW,313,0.0,0.0,94,0.00,,,0.00,,Wunderground v.1.13,2013-03-01 13:28:00,
2013-03-01 05:30:00,41.6,40.0,30.32,North,-999,0.0,0.0,94,0.00,,,-99.99,0,WeatherLink 5.7,2013-03-01 13:30:00,
2013-03-01 05:38:00,41.6,40.0,30.32,NW,313,0.0,0.0,94,0.00,,,0.00,,Wunderground v.1.13,2013-03-01 13:38:00,
2013-03-01 05:45:00,41.3,39.7,30.32,North,-999,0.0,0.0,94,0.00,,,-99.99,0,WeatherLink 5.7,2013-03-01 13:45:00,
2013-03-01 05:48:00,41.8,40.2,30.32,NW,313,0.0,0.0,94,0.00,,,0.00,,Wunderground v.1.13,2013-03-01 13:48:00,
2013-03-01 05:58:00,41.8,40.2,30.32,NW,313,0.0,0.0,94,0.00,,,0.00,,Wunderground v.1.13,2013-03-01 13:58:00,
2013-03-01 06:00:00,41.3,39.7,30.32,North,-999,0.0,0.0,94,0.00,,,-99.99,6,WeatherLink 5.7,2013-03-01 14:00:00,
2013-03-01 06:08:00,41.6,40.0,30.32,NW,313,0.0,0.0,94,0.00,,,0.00,,Wunderground v.1.13,2013-03-01 14:08:00,
2013-03-01 06:13:00,41.8,40.2,30.32,NW,313,0.0,0.0,94,0.00,,,0.00,,Wunderground v.1.13,2013-03-01 14:13:00,
2013-03-01 06:15:00,41.2,39.9,30.32,North,-999,0.0,0.0,95,0.00,,,-99.99,11,WeatherLink 5.7,2013-03-01 14:15:00,
2013-03-01 06:23:00,41.6,40.3,30.32,NW,313,0.0,0.0,95,0.00,,,0.00,,Wunderground v.1.13,2013-03-01 14:23:00,
2013-03-01 06:30:00,41.6,40.3,30.31,North,-999,0.0,0.0,95,0.00,,,-99.99,15,WeatherLink 5.7,2013-03-01 14:30:00,
2013-03-01 06:33:00,41.5,39.9,30.32,NW,313,0.0,0.0,94,0.00,,,0.00,,Wunderground v.1.13,2013-03-01 14:33:00,
2013-03-01 06:43:00,41.3,39.7,30.32,NW,313,0.0,0.0,94,0.00,,,0.00,,Wunderground v.1.13,2013-03-01 14:43:00,
2013-03-01 06:45:00,42.2,41.1,30.31,North,-999,0.0,0.0,96,0.00,,,-99.99,16,WeatherLink 5.7,2013-03-01 14:45:00,
2013-03-01 06:48:00,41.3,39.7,30.32,NW,313,0.0,0.0,94,0.00,,,0.00,,Wunderground v.1.13,2013-03-01 14:48:00,
2013-03-01 06:58:00,41.3,40.0,30.32,NW,313,0.0,0.0,95,0.00,,,0.00,,Wunderground v.1.13,2013-03-01 14:58:00,
2013-03-01 07:00:00,43.5,42.4,30.31,North,-999,0.0,0.0,96,0.00,,,-99.99,19,WeatherLink 5.7,2013-03-01 15:00:00,
2013-03-01 07:03:00,41.2,39.9,30.32,NW,313,0.0,0.0,95,0.00,,,0.00,,Wunderground v.1.13,2013-03-01 15:03:00,
2013-03-01 07:13:00,41.2,39.9,30.32,NW,313,0.0,0.0,95,0.00,,,0.00,,Wunderground v.1.13,2013-03-01 15:13:00,
2013-03-01 07:15:00,44.8,43.7,30.31,North,-999,0.0,0.0,96,0.00,,,-99.99,35,WeatherLink 5.7,2013-03-01 15:15:00,
2013-03-01 07:23:00,41.3,40.0,30.32,NW,313,0.0,0.0,95,0.00,,,0.00,,Wunderground v.1.13,2013-03-01 15:23:00,
2013-03-01 07:28:00,41.5,40.2,30.32,NW,313,0.0,0.0,95,0.00,,,0.00,,Wunderground v.1.13,2013-03-01 15:28:00,
2013-03-01 07:30:00,46.1,45.0,30.30,North,-999,0.0,0.0,96,0.00,,,-99.99,42,WeatherLink 5.7,2013-03-01 15:30:00,
2013-03-01 07:38:00,41.9,40.6,30.31,NW,313,0.0,0.0,95,0.00,,,0.00,,Wunderground v.1.13,2013-03-01 15:38:00,
2013-03-01 07:43:00,42.1,40.8,30.31,NW,313,0.0,0.0,95,0.00,,,0.00,,Wunderground v.1.13,2013-03-01 15:43:00,
2013-03-01 07:45:00,47.3,46.5,30.30,North,-999,0.0,0.0,97,0.00,,,-99.99,35,WeatherLink 5.7,2013-03-01 15:45:00,
2013-03-01 07:53:00,42.8,41.7,30.31,NW,313,0.0,0.0,96,0.00,,,0.00,,Wunderground v.1.13,2013-03-01 15:53:00,
2013-03-01 07:58:00,43.3,42.2,30.31,NW,313,0.0,0.0,96,0.00,,,0.00,,Wunderground v.1.13,2013-03-01 15:58:00,
2013-03-01 08:00:00,49.1,48.3,30.29,North,-999,0.0,0.0,97,0.00,,,-99.99,25,WeatherLink 5.7,2013-03-01 16:00:00,
2013-03-01 08:03:00,43.8,42.7,30.31,NW,313,0.0,0.0,96,0.00,,,0.00,,Wunderground v.1.13,2013-03-01 16:03:00,
2013-03-01 08:08:00,44.2,43.1,30.31,NW,313,0.0,0.0,96,0.00,,,0.00,,Wunderground v.1.13,2013-03-01 16:08:00,
2013-03-01 08:15:00,50.4,49.6,30.29,North,-999,0.0,0.0,97,0.00,,,-99.99,25,WeatherLink 5.7,2013-03-01 16:15:00,
2013-03-01 08:18:00,44.9,43.8,30.31,NW,313,0.0,0.0,96,0.00,,,0.00,,Wunderground v.1.13,2013-03-01 16:18:00,
2013-03-01 08:28:00,45.8,44.7,30.31,NW,313,0.0,0.0,96,0.00,,,0.00,,Wunderground v.1.13,2013-03-01 16:28:00,
2013-03-01 08:30:00,51.7,50.9,30.29,North,-999,0.0,0.0,97,0.00,,,-99.99,35,WeatherLink 5.7,2013-03-01 16:30:00,
2013-03-01 08:33:00,46.4,45.3,30.30,NW,313,0.0,0.0,96,0.00,,,0.00,,Wunderground v.1.13,2013-03-01 16:33:00,
2013-03-01 08:43:00,47.1,46.3,30.30,NW,313,0.0,0.0,97,0.00,,,0.00,,Wunderground v.1.13,2013-03-01 16:43:00,
2013-03-01 08:45:00,53.8,51.2,30.29,ENE,67,0.0,3.0,91,0.00,,,-99.99,33,WeatherLink 5.7,2013-03-01 16:45:00,
2013-03-01 08:53:00,48.2,47.4,30.30,NW,313,0.0,0.0,97,0.00,,,0.00,,Wunderground v.1.13,2013-03-01 16:53:00,
2013-03-01 09:00:00,57.2,50.1,30.29,NE,45,1.0,6.0,77,0.00,,,-99.99,43,WeatherLink 5.7,2013-03-01 17:00:00,
2013-03-01 09:03:00,49.2,48.4,30.29,NW,313,0.0,0.0,97,0.00,,,0.00,,Wunderground v.1.13,2013-03-01 17:03:00,
2013-03-01 09:08:00,49.8,49.0,30.29,NW,313,0.0,0.0,97,0.00,,,0.00,,Wunderground v.1.13,2013-03-01 17:08:00,
2013-03-01 09:13:00,50.2,49.4,30.29,NW,313,0.0,0.0,97,0.00,,,0.00,,Wunderground v.1.13,2013-03-01 17:13:00,
2013-03-01 09:15:00,59.8,48.8,30.29,East,90,1.0,4.0,67,0.00,,,-99.99,44,WeatherLink 5.7,2013-03-01 17:15:00,
2013-03-01 09:18:00,50.5,49.7,30.29,NW,313,0.0,0.0,97,0.00,,,0.00,,Wunderground v.1.13,2013-03-01 17:18:00,
2013-03-01 09:28:00,51.4,50.6,30.29,NW,313,0.0,0.0,97,0.00,,,0.00,,Wunderground v.1.13,2013-03-01 17:28:00,
2013-03-01 09:30:00,61.2,47.2,30.29,East,90,1.0,4.0,60,0.00,,,-99.99,36,WeatherLink 5.7,2013-03-01 17:30:00,
2013-03-01 09:38:00,52.3,51.2,30.29,NW,313,0.0,0.0,96,0.00,,,0.00,,Wunderground v.1.13,2013-03-01 17:38:00,
2013-03-01 09:45:00,62.4,47.4,30.28,East,90,1.0,5.0,58,0.00,,,-99.99,107,WeatherLink 5.7,2013-03-01 17:45:00,
2013-03-01 09:48:00,54.5,50.4,30.29,North,350,1.0,3.0,86,0.00,,,0.00,,Wunderground v.1.13,2013-03-01 17:48:00,
2013-03-01 09:58:00,56.7,49.9,30.29,West,275,1.0,1.0,78,0.00,,,0.00,,Wunderground v.1.13,2013-03-01 17:58:00,
2013-03-01 10:00:00,63.5,47.0,30.27,ENE,67,2.0,6.0,55,0.00,,,-99.99,286,WeatherLink 5.7,2013-03-01 18:00:00,
2013-03-01 10:03:00,57.8,49.6,30.29,East,79,0.0,2.0,74,0.00,,,0.00,,Wunderground v.1.13,2013-03-01 18:03:00,
2013-03-01 10:08:00,58.7,49.3,30.29,NNE,18,0.0,2.0,71,0.00,,,0.00,,Wunderground v.1.13,2013-03-01 18:08:00,
2013-03-01 10:15:00,64.7,46.1,30.27,East,90,1.0,7.0,51,0.00,,,-99.99,582,WeatherLink 5.7,2013-03-01 18:15:00,
2013-03-01 10:18:00,60.1,48.7,30.29,NNW,333,0.0,0.0,66,0.00,,,0.00,,Wunderground v.1.13,2013-03-01 18:18:00,
2013-03-01 10:23:00,60.5,47.4,30.29,East,86,0.0,0.0,62,0.00,,,0.00,,Wunderground v.1.13,2013-03-01 18:23:00,
2013-03-01 10:30:00,65.8,46.6,30.27,NNW,337,1.0,5.0,50,0.00,,,-99.99,604,WeatherLink 5.7,2013-03-01 18:30:00,
2013-03-01 10:33:00,61.3,46.8,30.29,East,82,2.0,2.0,59,0.00,,,0.00,,Wunderground v.1.13,2013-03-01 18:33:00,
2013-03-01 10:38:00,61.8,46.9,30.29,East,96,1.0,2.0,58,0.00,,,0.00,,Wunderground v.1.13,2013-03-01 18:38:00,
2013-03-01 10:45:00,66.1,45.8,30.27,East,90,2.0,6.0,48,0.00,,,-99.99,415,WeatherLink 5.7,2013-03-01 18:45:00,
2013-03-01 10:48:00,62.6,46.7,30.28,East,98,1.0,1.0,56,0.00,,,0.00,,Wunderground v.1.13,2013-03-01 18:48:00,
2013-03-01 10:58:00,63.5,47.0,30.28,East,79,2.0,2.0,55,0.00,,,0.00,,Wunderground v.1.13,2013-03-01 18:58:00,
2013-03-01 11:00:00,66.6,45.7,30.26,East,90,1.0,7.0,47,0.00,,,-99.99,135,WeatherLink 5.7,2013-03-01 19:00:00,
2013-03-01 11:08:00,64.2,46.7,30.27,ENE,71,2.0,2.0,53,0.00,,,0.00,,Wunderground v.1.13,2013-03-01 19:08:00,
2013-03-01 11:13:00,64.5,46.0,30.27,NW,323,2.0,2.0,51,0.00,,,0.00,,Wunderground v.1.13,2013-03-01 19:13:00,
2013-03-01 11:15:00,67.3,46.4,30.25,East,90,2.0,5.0,47,0.00,,,-99.99,391,WeatherLink 5.7,2013-03-01 19:15:00,
2013-03-01 11:23:00,65.3,46.7,30.27,NNW,333,1.0,1.0,51,0.00,,,0.00,,Wunderground v.1.13,2013-03-01 19:23:00,
2013-03-01 11:28:00,65.6,46.5,30.27,ESE,113,1.0,1.0,50,0.00,,,0.00,,Wunderground v.1.13,2013-03-01 19:28:00,
2013-03-01 11:30:00,67.6,46.1,30.24,East,90,1.0,5.0,46,0.00,,,-99.99,369,WeatherLink 5.7,2013-03-01 19:30:00,
2013-03-01 11:33:00,66.0,46.8,30.27,WNW,295,1.0,1.0,50,0.00,,,0.00,,Wunderground v.1.13,2013-03-01 19:33:00,
2013-03-01 11:38:00,66.3,46.6,30.27,East,90,1.0,1.0,49,0.00,,,0.00,,Wunderground v.1.13,2013-03-01 19:38:00,
2013-03-01 11:45:00,68.8,47.2,30.24,East,90,1.0,6.0,46,0.00,,,-99.99,536,WeatherLink 5.7,2013-03-01 19:45:00,
2013-03-01 11:48:00,66.1,45.8,30.27,SW,236,2.0,4.0,48,0.00,,,0.00,,Wunderground v.1.13,2013-03-01 19:48:00,
2013-03-01 11:58:00,66.4,45.5,30.27,West,273,2.0,2.0,47,0.00,,,0.00,,Wunderground v.1.13,2013-03-01 19:58:00,
2013-03-01 12:00:00,69.1,46.3,30.22,East,90,1.0,6.0,44,0.00,,,-99.99,131,WeatherLink 5.7,2013-03-01 20:00:00,
2013-03-01 12:08:00,67.1,45.6,30.26,North,5,2.0,2.0,46,0.00,,,0.00,,Wunderground v.1.13,2013-03-01 20:08:00,
2013-03-01 12:15:00,69.8,46.3,30.21,East,90,1.0,6.0,43,0.00,,,-99.99,506,WeatherLink 5.7,2013-03-01 20:15:00,
2013-03-01 12:18:00,67.3,45.8,30.25,WNW,293,1.0,3.0,46,0.00,,,0.00,,Wunderground v.1.13,2013-03-01 20:18:00,
2013-03-01 12:23:00,67.6,46.1,30.25,North,360,1.0,1.0,46,0.00,,,0.00,,Wunderground v.1.13,2013-03-01 20:23:00,
2013-03-01 12:28:00,67.6,46.1,30.25,NNE,25,1.0,1.0,46,0.00,,,0.00,,Wunderground v.1.13,2013-03-01 20:28:00,
2013-03-01 12:30:00,70.6,47.0,30.21,NW,315,1.0,4.0,43,0.00,,,-99.99,369,WeatherLink 5.7,2013-03-01 20:30:00,
2013-03-01 12:38:00,68.4,46.8,30.24,NNW,343,1.0,1.0,46,0.00,,,0.00,,Wunderground v.1.13,2013-03-01 20:38:00,
2013-03-01 12:43:00,68.6,47.0,30.24,SSW,195,1.0,1.0,46,0.00,,,0.00,,Wunderground v.1.13,2013-03-01 20:43:00,
2013-03-01 12:45:00,71.1,46.8,30.20,ENE,67,1.0,5.0,42,0.00,,,-99.99,603,WeatherLink 5.7,2013-03-01 20:45:00,
2013-03-01 12:53:00,69.1,45.7,30.24,NE,39,1.0,1.0,43,0.00,,,0.00,,Wunderground v.1.13,2013-03-01 20:53:00,
2013-03-01 13:00:00,71.3,46.4,30.19,NNW,337,1.0,4.0,41,0.00,,,-99.99,491,WeatherLink 5.7,2013-03-01 21:00:00,
2013-03-01 13:03:00,69.3,46.4,30.22,West,267,1.0,1.0,44,0.00,,,0.00,,Wunderground v.1.13,2013-03-01 21:03:00,
2013-03-01 13:08:00,69.6,46.7,30.22,WNW,292,1.0,1.0,44,0.00,,,0.00,,Wunderground v.1.13,2013-03-01 21:08:00,
2013-03-01 13:15:00,71.8,46.8,30.19,NNW,337,1.0,4.0,41,0.00,,,-99.99,250,WeatherLink 5.7,2013-03-01 21:15:00,
2013-03-01 13:18:00,69.8,46.9,30.21,West,278,2.0,2.0,44,0.00,,,0.00,,Wunderground v.1.13,2013-03-01 21:18:00,
2013-03-01 13:28:00,70.4,47.4,30.21,NNW,344,1.0,1.0,44,0.00,,,0.00,,Wunderground v.1.13,2013-03-01 21:28:00,
2013-03-01 13:30:00,71.8,46.8,30.18,NW,315,1.0,4.0,41,0.00,,,-99.99,192,WeatherLink 5.7,2013-03-01 21:30:00,
2013-03-01 13:38:00,71.1,47.5,30.21,NNW,341,1.0,2.0,43,0.00,,,0.00,,Wunderground v.1.13,2013-03-01 21:38:00,
2013-03-01 13:43:00,71.1,46.8,30.21,North,355,1.0,2.0,42,0.00,,,0.00,,Wunderground v.1.13,2013-03-01 21:43:00,
2013-03-01 13:45:00,71.6,45.3,30.18,ENE,67,0.0,2.0,39,0.00,,,-99.99,112,WeatherLink 5.7,2013-03-01 21:45:00,
2013-03-01 13:53:00,71.1,46.8,30.20,NE,53,1.0,1.0,42,0.00,,,0.00,,Wunderground v.1.13,2013-03-01 21:53:00,
2013-03-01 14:00:00,71.1,44.9,30.17,ENE,67,1.0,4.0,39,0.00,,,-99.99,46,WeatherLink 5.7,2013-03-01 22:00:00,
2013-03-01 14:03:00,71.5,46.6,30.19,NNW,348,1.0,1.0,41,0.00,,,0.00,,Wunderground v.1.13,2013-03-01 22:03:00,
2013-03-01 14:08:00,71.8,46.8,30.19,NNW,337,1.0,1.0,41,0.00,,,0.00,,Wunderground v.1.13,2013-03-01 22:08:00,
2013-03-01 14:15:00,71.3,45.7,30.18,East,90,1.0,4.0,40,0.00,,,-99.99,68,WeatherLink 5.7,2013-03-01 22:15:00,
2013-03-01 14:18:00,71.8,46.8,30.19,NW,306,1.0,1.0,41,0.00,,,0.00,,Wunderground v.1.13,2013-03-01 22:18:00,
2013-03-01 14:28:00,72.0,47.0,30.19,East,98,1.0,1.0,41,0.00,,,0.00,,Wunderground v.1.13,2013-03-01 22:28:00,
2013-03-01 14:30:00,71.3,45.7,30.17,East,90,1.0,5.0,40,0.00,,,-99.99,96,WeatherLink 5.7,2013-03-01 22:30:00,
2013-03-01 14:33:00,71.8,46.2,30.18,West,261,1.0,1.0,40,0.00,,,0.00,,Wunderground v.1.13,2013-03-01 22:33:00,
2013-03-01 14:38:00,71.8,45.5,30.18,ENE,78,0.0,1.0,39,0.00,,,0.00,,Wunderground v.1.13,2013-03-01 22:38:00,
2013-03-01 14:45:00,71.5,45.2,30.17,East,90,1.0,4.0,39,0.00,,,-99.99,47,WeatherLink 5.7,2013-03-01 22:45:00,
2013-03-01 14:48:00,71.6,46.0,30.18,ENE,78,0.0,0.0,40,0.00,,,0.00,,Wunderground v.1.13,2013-03-01 22:48:00,
2013-03-01 14:58:00,71.3,45.1,30.18,ENE,61,1.0,2.0,39,0.00,,,0.00,,Wunderground v.1.13,2013-03-01 22:58:00,
2013-03-01 15:00:00,71.3,43.7,30.17,West,270,1.0,5.0,37,0.00,,,-99.99,50,WeatherLink 5.7,2013-03-01 23:00:00,
2013-03-01 15:08:00,71.1,45.5,30.18,ENE,76,0.0,1.0,40,0.00,,,0.00,,Wunderground v.1.13,2013-03-01 23:08:00,
2013-03-01 15:13:00,71.3,45.1,30.18,East,96,1.0,2.0,39,0.00,,,0.00,,Wunderground v.1.13,2013-03-01 23:13:00,
2013-03-01 15:15:00,71.3,42.2,30.16,ENE,67,0.0,2.0,35,0.00,,,-99.99,66,WeatherLink 5.7,2013-03-01 23:15:00,
2013-03-01 15:23:00,71.1,45.5,30.18,East,88,1.0,1.0,40,0.00,,,0.00,,Wunderground v.1.13,2013-03-01 23:23:00,
2013-03-01 15:30:00,71.1,42.0,30.16,ENE,67,0.0,3.0,35,0.00,,,-99.99,59,WeatherLink 5.7,2013-03-01 23:30:00,
2013-03-01 15:33:00,71.3,45.7,30.17,NNW,329,2.0,2.0,40,0.00,,,0.00,,Wunderground v.1.13,2013-03-01 23:33:00,
2013-03-01 15:38:00,71.5,44.5,30.17,ESE,116,1.0,2.0,38,0.00,,,0.00,,Wunderground v.1.13,2013-03-01 23:38:00,
2013-03-01 15:45:00,70.9,41.9,30.16,NW,315,0.0,3.0,35,0.00,,,-99.99,54,WeatherLink 5.7,2013-03-01 23:45:00,
2013-03-01 15:48:00,71.5,44.5,30.17,West,263,1.0,1.0,38,0.00,,,0.00,,Wunderground v.1.13,2013-03-01 23:48:00,
2013-03-01 15:58:00,71.3,44.4,30.17,SE,132,1.0,1.0,38,0.00,,,0.00,,Wunderground v.1.13,2013-03-01 23:58:00,
2013-03-01 16:00:00,70.6,43.1,30.15,WSW,247,0.0,2.0,37,0.00,,,-99.99,55,WeatherLink 5.7,2013-03-02 00:00:00,
2013-03-01 16:03:00,71.1,44.2,30.17,WNW,287,0.0,0.0,38,0.00,,,0.00,,Wunderground v.1.13,2013-03-02 00:03:00,
2013-03-01 16:13:00,71.1,42.0,30.17,NW,321,0.0,1.0,35,0.00,,,0.00,,Wunderground v.1.13,2013-03-02 00:13:00,
2013-03-01 16:15:00,69.9,43.8,30.15,WSW,247,0.0,2.0,39,0.00,,,-99.99,30,WeatherLink 5.7,2013-03-02 00:15:00,
2013-03-01 16:18:00,71.1,42.8,30.16,ENE,74,0.0,0.0,36,0.00,,,0.00,,Wunderground v.1.13,2013-03-02 00:18:00,
2013-03-01 16:23:00,71.1,42.8,30.16,ENE,74,0.0,0.0,36,0.00,,,0.00,,Wunderground v.1.13,2013-03-02 00:23:00,
2013-03-01 16:30:00,68.4,43.8,30.15,WSW,247,0.0,1.0,41,0.00,,,-99.99,19,WeatherLink 5.7,2013-03-02 00:30:00,
2013-03-01 16:33:00,71.1,42.0,30.16,NW,313,1.0,1.0,35,0.00,,,0.00,,Wunderground v.1.13,2013-03-02 00:33:00,
2013-03-01 16:38:00,70.9,42.6,30.16,NW,313,1.0,1.0,36,0.00,,,0.00,,Wunderground v.1.13,2013-03-02 00:38:00,
2013-03-01 16:45:00,66.8,44.2,30.15,North,-999,0.0,0.0,44,0.00,,,-99.99,14,WeatherLink 5.7,2013-03-02 00:45:00,
2013-03-01 16:48:00,70.9,41.9,30.16,West,259,0.0,1.0,35,0.00,,,0.00,,Wunderground v.1.13,2013-03-02 00:48:00,
2013-03-01 16:58:00,70.8,42.5,30.16,WSW,249,0.0,0.0,36,0.00,,,0.00,,Wunderground v.1.13,2013-03-02 00:58:00,
2013-03-01 17:00:00,65.3,44.5,30.15,North,-999,0.0,0.0,47,0.00,,,-99.99,6,WeatherLink 5.7,2013-03-02 01:00:00,
2013-03-01 17:03:00,70.6,42.3,30.15,WSW,249,0.0,0.0,36,0.00,,,0.00,,Wunderground v.1.13,2013-03-02 01:03:00,
2013-03-01 17:13:00,70.1,43.3,30.15,WSW,248,0.0,0.0,38,0.00,,,0.00,,Wunderground v.1.13,2013-03-02 01:13:00,
2013-03-01 17:15:00,63.5,44.5,30.16,North,-999,0.0,0.0,50,0.00,,,-99.99,0,WeatherLink 5.7,2013-03-02 01:15:00,
2013-03-01 17:18:00,69.6,43.5,30.15,WSW,248,0.0,0.0,39,0.00,,,0.00,,Wunderground v.1.13,2013-03-02 01:18:00,
2013-03-01 17:28:00,68.8,44.1,30.15,WSW,248,0.0,0.0,41,0.00,,,0.00,,Wunderground v.1.13,2013-03-02 01:28:00,
2013-03-01 17:30:00,62.0,44.7,30.16,North,-999,0.0,0.0,53,0.00,,,-99.99,0,WeatherLink 5.7,2013-03-02 01:30:00,
2013-03-01 17:33:00,68.1,44.1,30.15,WSW,248,0.0,0.0,42,0.00,,,0.00,,Wunderground v.1.13,2013-03-02 01:33:00,
2013-03-01 17:38:00,67.6,44.3,30.15,WSW,248,0.0,0.0,43,0.00,,,0.00,,Wunderground v.1.13,2013-03-02 01:38:00,
2013-03-01 17:45:00,60.2,44.4,30.17,North,-999,0.0,0.0,56,0.00,,,-99.99,0,WeatherLink 5.7,2013-03-02 01:45:00,
2013-03-01 17:48:00,66.6,44.0,30.15,WSW,248,0.0,0.0,44,0.00,,,0.00,,Wunderground v.1.13,2013-03-02 01:48:00,
2013-03-01 17:53:00,66.1,44.7,30.15,WSW,248,0.0,0.0,46,0.00,,,0.00,,Wunderground v.1.13,2013-03-02 01:53:00,
2013-03-01 18:00:00,59.0,44.7,30.16,North,-999,0.0,0.0,59,0.00,,,-99.99,0,WeatherLink 5.7,2013-03-02 02:00:00,
2013-03-01 18:03:00,65.2,45.0,30.15,WSW,248,0.0,0.0,48,0.00,,,0.00,,Wunderground v.1.13,2013-03-02 02:03:00,
2013-03-01 18:08:00,64.5,44.9,30.15,WSW,248,0.0,0.0,49,0.00,,,0.00,,Wunderground v.1.13,2013-03-02 02:08:00,
2013-03-01 18:15:00,58.0,45.0,30.17,WSW,247,0.0,1.0,62,0.00,,,-99.99,0,WeatherLink 5.7,2013-03-02 02:15:00,
2013-03-01 18:18:00,63.2,44.2,30.16,WSW,248,0.0,0.0,50,0.00,,,0.00,,Wunderground v.1.13,2013-03-02 02:18:00,
2013-03-01 18:23:00,62.6,44.7,30.16,WSW,248,0.0,0.0,52,0.00,,,0.00,,Wunderground v.1.13,2013-03-02 02:23:00,
2013-03-01 18:30:00,56.9,44.8,30.18,North,-999,0.0,0.0,64,0.00,,,-99.99,0,WeatherLink 5.7,2013-03-02 02:30:00,
2013-03-01 18:33:00,61.6,44.8,30.16,WSW,248,0.0,0.0,54,0.00,,,0.00,,Wunderground v.1.13,2013-03-02 02:33:00,
2013-03-01 18:43:00,60.4,44.6,30.16,WSW,248,0.0,0.0,56,0.00,,,0.00,,Wunderground v.1.13,2013-03-02 02:43:00,
2013-03-01 18:45:00,55.7,44.9,30.18,North,-999,0.0,0.0,67,0.00,,,-99.99,0,WeatherLink 5.7,2013-03-02 02:45:00,
2013-03-01 18:48:00,59.9,44.6,30.16,WSW,248,0.0,0.0,57,0.00,,,0.00,,Wunderground v.1.13,2013-03-02 02:48:00,
2013-03-01 18:53:00,59.6,44.8,30.16,WSW,248,0.0,0.0,58,0.00,,,0.00,,Wunderground v.1.13,2013-03-02 02:53:00,
2013-03-01 19:00:00,54.8,44.8,30.18,North,-999,0.0,0.0,69,0.00,,,-99.99,0,WeatherLink 5.7,2013-03-02 03:00:00,
2013-03-01 19:03:00,58.9,45.0,30.16,WSW,248,0.0,0.0,60,0.00,,,0.00,,Wunderground v.1.13,2013-03-02 03:03:00,
2013-03-01 19:13:00,58.1,44.7,30.16,WSW,248,0.0,0.0,61,0.00,,,0.00,,Wunderground v.1.13,2013-03-02 03:13:00,
2013-03-01 19:15:00,54.1,44.9,30.19,WSW,247,0.0,1.0,71,0.00,,,-99.99,0,WeatherLink 5.7,2013-03-02 03:15:00,
2013-03-01 19:23:00,57.5,45.0,30.17,WSW,248,0.0,0.0,63,0.00,,,0.00,,Wunderground v.1.13,2013-03-02 03:23:00,
2013-03-01 19:28:00,57.0,44.9,30.17,WSW,248,0.0,0.0,64,0.00,,,0.00,,Wunderground v.1.13,2013-03-02 03:28:00,
2013-03-01 19:30:00,53.3,44.5,30.18,WSW,247,0.0,1.0,72,0.00,,,-99.99,0,WeatherLink 5.7,2013-03-02 03:30:00,
2013-03-01 19:38:00,56.3,44.7,30.18,WSW,248,0.0,0.0,65,0.00,,,0.00,,Wunderground v.1.13,2013-03-02 03:38:00,
2013-03-01 19:45:00,52.8,44.4,30.19,North,-999,0.0,0.0,73,0.00,,,-99.99,0,WeatherLink 5.7,2013-03-02 03:45:00,
2013-03-01 19:48:00,55.6,44.8,30.18,WSW,248,0.0,0.0,67,0.00,,,0.00,,Wunderground v.1.13,2013-03-02 03:48:00,
2013-03-01 19:58:00,55.0,45.0,30.18,WSW,248,0.0,0.0,69,0.00,,,0.00,,Wunderground v.1.13,2013-03-02 03:58:00,
2013-03-01 20:00:00,52.2,44.5,30.18,North,-999,0.0,0.0,75,0.00,,,-99.99,0,WeatherLink 5.7,2013-03-02 04:00:00,
2013-03-01 20:03:00,54.7,44.7,30.18,WSW,248,0.0,0.0,69,0.00,,,0.00,,Wunderground v.1.13,2013-03-02 04:03:00,
2013-03-01 20:13:00,54.1,44.5,30.18,WSW,248,0.0,0.0,70,0.00,,,0.00,,Wunderground v.1.13,2013-03-02 04:13:00,
2013-03-01 20:15:00,51.6,44.3,30.18,North,-999,0.0,0.0,76,0.00,,,-99.99,0,WeatherLink 5.7,2013-03-02 04:15:00,
2013-03-01 20:23:00,53.6,44.4,30.19,WSW,248,0.0,0.0,71,0.00,,,0.00,,Wunderground v.1.13,2013-03-02 04:23:00,
2013-03-01 20:30:00,50.8,43.8,30.18,North,-999,0.0,0.0,77,0.00,,,-99.99,0,WeatherLink 5.7,2013-03-02 04:30:00,
2013-03-01 20:33:00,53.3,44.9,30.18,WSW,248,0.0,0.0,73,0.00,,,0.00,,Wunderground v.1.13,2013-03-02 04:33:00,
2013-03-01 20:38:00,53.1,44.7,30.18,WSW,248,0.0,0.0,73,0.00,,,0.00,,Wunderground v.1.13,2013-03-02 04:38:00,
2013-03-01 20:45:00,50.1,43.5,30.18,North,-999,0.0,0.0,78,0.00,,,-99.99,0,WeatherLink 5.7,2013-03-02 04:45:00,
2013-03-01 20:48:00,52.8,44.4,30.19,WSW,248,0.0,0.0,73,0.00,,,0.00,,Wunderground v.1.13,2013-03-02 04:48:00,
2013-03-01 20:58:00,52.2,44.5,30.19,WSW,248,0.0,0.0,75,0.00,,,0.00,,Wunderground v.1.13,2013-03-02 04:58:00,
2013-03-01 21:00:00,49.5,43.6,30.18,North,-999,0.0,0.0,80,0.00,,,-99.99,0,WeatherLink 5.7,2013-03-02 05:00:00,
2013-03-01 21:03:00,52.0,44.3,30.18,WSW,248,0.0,0.0,75,0.00,,,0.00,,Wunderground v.1.13,2013-03-02 05:03:00,
2013-03-01 21:08:00,51.7,44.0,30.18,WSW,248,0.0,0.0,75,0.00,,,0.00,,Wunderground v.1.13,2013-03-02 05:08:00,
2013-03-01 21:13:00,51.6,43.9,30.18,WSW,248,0.0,0.0,75,0.00,,,0.00,,Wunderground v.1.13,2013-03-02 05:13:00,
2013-03-01 21:15:00,49.1,43.5,30.18,WSW,247,0.0,1.0,81,0.00,,,-99.99,0,WeatherLink 5.7,2013-03-02 05:15:00,
2013-03-01 21:23:00,51.1,44.1,30.18,WSW,248,0.0,0.0,77,0.00,,,0.00,,Wunderground v.1.13,2013-03-02 05:23:00,
2013-03-01 21:30:00,48.6,43.4,30.18,North,-999,0.0,0.0,82,0.00,,,-99.99,0,WeatherLink 5.7,2013-03-02 05:30:00,
2013-03-01 21:33:00,50.7,43.8,30.18,WSW,248,0.0,0.0,77,0.00,,,0.00,,Wunderground v.1.13,2013-03-02 05:33:00,
2013-03-01 21:38:00,50.5,43.6,30.18,WSW,248,0.0,0.0,77,0.00,,,0.00,,Wunderground v.1.13,2013-03-02 05:38:00,
2013-03-01 21:45:00,48.3,43.4,30.18,North,-999,0.0,0.0,83,0.00,,,-99.99,0,WeatherLink 5.7,2013-03-02 05:45:00,
2013-03-01 21:48:00,49.9,43.6,30.18,WSW,248,0.0,0.0,79,0.00,,,0.00,,Wunderground v.1.13,2013-03-02 05:48:00,
2013-03-01 21:58:00,49.6,43.7,30.18,WSW,248,0.0,0.0,80,0.00,,,0.00,,Wunderground v.1.13,2013-03-02 05:58:00,
2013-03-01 22:08:00,49.2,43.6,30.18,WSW,248,0.0,0.0,81,0.00,,,0.00,,Wunderground v.1.13,2013-03-02 06:08:00,
2013-03-01 22:15:00,47.9,43.3,30.17,North,-999,0.0,0.0,84,0.00,,,-99.99,0,WeatherLink 5.7,2013-03-02 06:15:00,
2013-03-01 22:18:00,48.9,43.3,30.18,WSW,248,0.0,0.0,81,0.00,,,0.00,,Wunderground v.1.13,2013-03-02 06:18:00,
2013-03-01 22:28:00,48.6,43.4,30.18,WSW,248,0.0,0.0,82,0.00,,,0.00,,Wunderground v.1.13,2013-03-02 06:28:00,
2013-03-01 22:30:00,47.4,42.8,30.16,North,-999,0.0,0.0,84,0.00,,,-99.99,0,WeatherLink 5.7,2013-03-02 06:30:00,
2013-03-01 22:33:00,48.6,43.4,30.18,WSW,248,0.0,0.0,82,0.00,,,0.00,,Wunderground v.1.13,2013-03-02 06:33:00,
2013-03-01 22:43:00,48.5,43.6,30.18,WSW,248,0.0,0.0,83,0.00,,,0.00,,Wunderground v.1.13,2013-03-02 06:43:00,
2013-03-01 22:45:00,47.0,42.7,30.17,North,-999,0.0,0.0,85,0.00,,,-99.99,0,WeatherLink 5.7,2013-03-02 06:45:00,
2013-03-01 22:53:00,48.2,43.3,30.18,WSW,248,0.0,0.0,83,0.00,,,0.00,,Wunderground v.1.13,2013-03-02 06:53:00,
2013-03-01 23:00:00,47.0,43.0,30.17,WSW,247,0.0,1.0,86,0.00,,,-99.99,0,WeatherLink 5.7,2013-03-02 07:00:00,
2013-03-01 23:03:00,48.0,43.4,30.18,WSW,248,0.0,0.0,84,0.00,,,0.00,,Wunderground v.1.13,2013-03-02 07:03:00,
2013-03-01 23:08:00,48.0,43.4,30.18,WSW,248,0.0,0.0,84,0.00,,,0.00,,Wunderground v.1.13,2013-03-02 07:08:00,
2013-03-01 23:15:00,46.8,42.8,30.16,WSW,247,0.0,1.0,86,0.00,,,-99.99,0,WeatherLink 5.7,2013-03-02 07:15:00,
2013-03-01 23:18:00,47.7,43.1,30.17,WSW,248,0.0,0.0,84,0.00,,,0.00,,Wunderground v.1.13,2013-03-02 07:18:00,
2013-03-01 23:23:00,47.6,43.0,30.17,WSW,248,0.0,0.0,84,0.00,,,0.00,,Wunderground v.1.13,2013-03-02 07:23:00,
2013-03-01 23:28:00,47.4,42.8,30.17,WSW,248,0.0,0.0,84,0.00,,,0.00,,Wunderground v.1.13,2013-03-02 07:28:00,
2013-03-01 23:30:00,46.5,42.5,30.16,WSW,247,0.0,1.0,86,0.00,,,-99.99,0,WeatherLink 5.7,2013-03-02 07:30:00,
2013-03-01 23:38:00,47.1,42.5,30.16,WSW,248,0.0,0.0,84,0.00,,,0.00,,Wunderground v.1.13,2013-03-02 07:38:00,
2013-03-01 23:43:00,47.1,42.8,30.16,WSW,248,0.0,0.0,85,0.00,,,0.00,,Wunderground v.1.13,2013-03-02 07:43:00,
2013-03-01 23:45:00,46.4,42.7,30.16,North,-999,0.0,0.0,87,0.00,,,-99.99,0,WeatherLink 5.7,2013-03-02 07:45:00,
2013-03-01 23:48:00,47.0,42.7,30.16,WSW,248,0.0,0.0,85,0.00,,,0.00,,Wunderground v.1.13,2013-03-02 07:48:00,
2013-03-01 23:53:00,47.0,43.0,30.16,WSW,248,0.0,0.0,86,0.00,,,0.00,,Wunderground v.1.13,2013-03-02 07:53:00,